aviador You're here:

LFQQ Decoded Metar

LILLE in FRANCE
Report Time2018-05-21 16:30:00
UTC Time2018-05-21 16:59:58
Flight Rules vfr VFR
Wind030° at 05 kt
W.Decomp.*RWY 02: 4.9 kt HW 0.9 kt RCW
RWY 08: 3.2 kt HW 3.8 kt LCW
W.Rank030° ranks 19
Current wind is below 030° avg. (7.2)
Visibility9999 m
Phenomena:Thuderstorm Rain
Clouds:N/A
Expected CloudBase > 5,200 ft AGL from Temp-Dew spread
Ceiling4,000 ft
Temp23°C (ISA +8)
Dew Point10°C (44% RH)
AAT21.3°C
QNH1011 hPa
Density Alt1,375 ft
Elevation171 ft
Report Wrong Elevation
Raw Report
LFQQ 211630Z AUTO 03005KT CAVOK 23/10 Q1011 TEMPO VRB15G25KT 3000
TSRA BKN040CB=

Extra information for LFQQ:More info

Metar Taf Metar & Taf Last 4 Metars F.Rules Stats Wind Profile Meteogram Temp Stats Airport Information Weather charts Add Link Nearby VenuesMetar ALERT Operation Metar Decoded Social comments